Time;durP1;ratioP1;P1;durP2;ratioP2;P2;SDS_P1;SDS_P2;PMS_P1;PMS_P2;Temp;Humidity;BMP_temperature;BMP_pressure;BME280_temperature;BME280_humidity;BME280_pressure;Samples;Min_cycle;Max_cycle;Signal;HPM_P1;HPM_P2
2023/04/01 00:02:07;;;;;;;;;1.25;1.25;;;;;11.14;73.33;98913.28;5041053;28;45434;-81
2023/04/01 00:04:32;;;;;;;;;1.00;1.00;;;;;11.17;73.50;98918.41;5054748;28;45400;-86
2023/04/01 00:06:59;;;;;;;;;2.00;2.00;;;;;11.20;74.21;98926.19;5053861;28;45420;-79
2023/04/01 00:09:24;;;;;;;;;5.00;2.25;;;;;11.21;74.73;98929.69;5054188;28;46294;-81
2023/04/01 00:11:50;;;;;;;;;2.00;1.00;;;;;11.16;74.46;98932.53;5069721;28;45414;-80
2023/04/01 00:14:15;;;;;;;;;2.00;2.00;;;;;11.15;74.12;98931.66;5054874;28;45529;-80
2023/04/01 00:16:40;;;;;;;;;4.00;2.75;;;;;11.16;74.64;98925.47;5054447;28;45376;-80
2023/04/01 00:19:06;;;;;;;;;3.00;2.00;;;;;11.21;74.87;98929.69;5054575;28;45405;-80
2023/04/01 00:21:32;;;;;;;;;3.00;1.50;;;;;11.20;75.08;98936.75;5053910;28;45364;-80
2023/04/01 00:23:57;;;;;;;;;3.00;3.00;;;;;11.15;75.19;98936.94;5054550;28;45564;-79
2023/04/01 00:26:24;;;;;;;;;3.00;2.00;;;;;11.08;75.34;98937.28;5053903;28;45372;-79
2023/04/01 00:28:50;;;;;;;;;4.50;3.50;;;;;11.02;75.65;98940.22;5053852;28;45494;-79
2023/04/01 00:31:15;;;;;;;;;2.75;2.75;;;;;10.96;76.22;98940.47;5053369;28;45538;-80
2023/04/01 00:33:41;;;;;;;;;2.00;2.00;;;;;10.89;76.06;98933.78;5051480;28;45477;-80
2023/04/01 00:36:08;;;;;;;;;1.00;1.00;;;;;10.81;75.35;98937.59;5053564;28;45430;-80
2023/04/01 00:38:34;;;;;;;;;1.00;0.50;;;;;10.76;76.06;98936.94;5066108;28;46168;-80
2023/04/01 00:40:59;;;;;;;;;1.75;1.75;;;;;10.74;76.56;98935.28;5052678;28;45933;-79
2023/04/01 00:43:25;;;;;;;;;3.00;2.00;;;;;10.69;76.28;98940.78;5055257;28;45404;-80
2023/04/01 00:45:51;;;;;;;;;2.50;2.00;;;;;10.63;76.52;98951.56;5057097;28;45384;-80
2023/04/01 00:48:25;;;;;;;;;2.00;2.00;;;;;10.60;77.01;98938.53;5056879;28;45527;-79
2023/04/01 00:51:08;;;;;;;;;2.25;2.00;;;;;10.58;77.30;98936.88;5072811;28;45517;-79
2023/04/01 00:53:40;;;;;;;;;2.00;2.00;;;;;10.53;77.32;98926.56;5057490;28;45454;-79
2023/04/01 00:56:13;;;;;;;;;3.75;2.25;;;;;10.50;77.78;98939.84;5057331;28;45814;-80
2023/04/01 00:58:43;;;;;;;;;2.00;2.00;;;;;10.46;77.76;98936.47;5057496;28;45294;-81
2023/04/01 01:01:09;;;;;;;;;1.50;1.25;;;;;10.42;77.85;98929.63;5057563;28;45300;-81
2023/04/01 01:03:35;;;;;;;;;2.00;2.00;;;;;10.41;77.87;98921.78;5057746;28;45444;-82
2023/04/01 01:06:13;;;;;;;;;1.25;1.25;;;;;10.42;78.10;98921.72;5057619;28;45472;-82
2023/04/01 01:09:12;;;;;;;;;1.50;1.50;;;;;10.46;78.07;98927.72;5074514;27;47670;-82
2023/04/01 01:11:41;;;;;;;;;2.00;2.00;;;;;10.49;77.53;98927.59;5057427;28;45405;-82
2023/04/01 01:14:30;;;;;;;;;2.00;1.00;;;;;10.50;77.32;98929.31;5057635;28;45380;-82
2023/04/01 01:17:17;;;;;;;;;4.50;2.50;;;;;10.53;77.29;98917.78;5057336;28;45379;-82
2023/04/01 01:20:18;;;;;;;;;1.25;1.00;;;;;10.54;77.72;98912.44;5057212;28;46471;-81
2023/04/01 01:23:05;;;;;;;;;2.00;2.00;;;;;10.57;77.78;98920.19;5052558;28;45514;-81
2023/04/01 01:25:49;;;;;;;;;2.50;2.00;;;;;10.60;77.85;98924.47;5043380;28;45514;-80
2023/04/01 01:28:36;;;;;;;;;3.50;2.00;;;;;10.58;77.68;98915.78;5056360;28;45346;-80
2023/04/01 01:31:20;;;;;;;;;3.75;2.00;;;;;10.56;78.16;98915.84;5043677;28;46475;-80
2023/04/01 01:33:55;;;;;;;;;2.00;2.00;;;;;10.54;77.72;98909.81;5045953;28;45408;-80
2023/04/01 01:36:22;;;;;;;;;4.00;2.00;;;;;10.57;78.47;98911.44;5055323;28;45448;-80
2023/04/01 01:38:50;;;;;;;;;4.00;2.25;;;;;10.57;77.94;98919.34;5072045;28;45565;-80
2023/04/01 01:41:18;;;;;;;;;1.00;1.00;;;;;10.58;78.23;98919.28;5038488;28;45896;-80
2023/04/01 01:43:47;;;;;;;;;1.00;1.00;;;;;10.59;78.39;98906.97;5042955;28;46167;-80
2023/04/01 01:46:18;;;;;;;;;2.75;2.00;;;;;10.60;78.01;98912.16;5055189;28;45364;-80
2023/04/01 01:48:47;;;;;;;;;1.50;0.00;;;;;10.59;78.27;98906.97;5056857;28;45540;-80
2023/04/01 01:51:12;;;;;;;;;3.00;1.75;;;;;10.58;78.18;98906.09;5056327;28;46301;-80
2023/04/01 01:53:38;;;;;;;;;1.00;1.00;;;;;10.56;78.21;98902.66;5056561;28;45845;-80
2023/04/01 01:56:04;;;;;;;;;2.00;1.00;;;;;10.53;77.71;98908.09;5055199;28;45412;-80
2023/04/01 01:58:31;;;;;;;;;3.75;2.00;;;;;10.53;77.74;98913.38;5056153;28;45511;-80
2023/04/01 02:01:00;;;;;;;;;1.75;1.75;;;;;10.53;78.05;98913.38;5070415;28;47027;-81
2023/04/01 02:03:31;;;;;;;;;0.25;0.25;;;;;10.53;77.63;98910.72;5056602;28;45361;-81
2023/04/01 02:06:00;;;;;;;;;2.00;1.75;;;;;10.52;77.92;98903.75;5071448;28;45380;-81
2023/04/01 02:08:37;;;;;;;;;3.25;1.25;;;;;10.50;78.22;98905.59;5056026;28;45526;-82
2023/04/01 02:11:08;;;;;;;;;2.25;1.25;;;;;10.48;78.26;98903.00;5043204;28;47937;-82
2023/04/01 02:13:47;;;;;;;;;0.25;0.25;;;;;10.49;78.61;98902.09;5056736;28;45373;-81
2023/04/01 02:16:31;;;;;;;;;2.75;2.00;;;;;10.54;79.06;98907.19;5056718;28;45339;-82
2023/04/01 02:18:59;;;;;;;;;1.00;1.00;;;;;10.58;78.40;98910.50;5056654;28;45403;-81
2023/04/01 02:21:30;;;;;;;;;3.50;2.25;;;;;10.59;78.22;98906.97;5056245;28;45608;-82
2023/04/01 02:23:57;;;;;;;;;3.00;1.25;;;;;10.58;77.88;98910.50;5043418;28;45486;-81
2023/04/01 02:26:25;;;;;;;;;2.00;2.00;;;;;10.58;78.20;98914.00;5056392;28;45417;-82
2023/04/01 02:28:54;;;;;;;;;3.00;3.00;;;;;10.61;78.32;98913.03;5056636;28;45455;-81
2023/04/01 02:31:20;;;;;;;;;2.00;2.00;;;;;10.63;78.18;98912.03;5071663;28;48541;-80
2023/04/01 02:33:47;;;;;;;;;3.75;3.00;;;;;10.65;78.13;98910.19;5055938;28;45494;-80
2023/04/01 02:36:14;;;;;;;;;1.00;1.00;;;;;10.67;78.00;98895.16;5070150;28;45496;-81
2023/04/01 02:38:41;;;;;;;;;3.50;2.00;;;;;10.69;77.81;98889.81;5056048;28;45467;-81
2023/04/01 02:41:07;;;;;;;;;3.00;2.00;;;;;10.73;78.03;98886.09;5055739;28;45342;-81
2023/04/01 02:43:32;;;;;;;;;2.00;2.00;;;;;10.76;78.10;98888.63;5046406;28;45353;-80
2023/04/01 02:45:58;;;;;;;;;4.00;1.00;;;;;10.79;77.72;98893.75;5050720;28;45403;-80
2023/04/01 02:48:23;;;;;;;;;3.25;1.75;;;;;10.80;77.29;98893.69;5055487;28;45364;-79
2023/04/01 02:50:49;;;;;;;;;3.00;1.00;;;;;10.80;77.21;98896.31;5071188;28;47774;-80
2023/04/01 02:53:15;;;;;;;;;1.00;1.00;;;;;10.79;77.21;98893.75;5055395;28;45477;-80
2023/04/01 02:55:41;;;;;;;;;4.00;1.00;;;;;10.78;77.37;98894.69;5059093;28;45511;-81
2023/04/01 02:58:06;;;;;;;;;1.75;1.75;;;;;10.78;77.45;98892.03;5065403;28;45703;-80
2023/04/01 03:00:32;;;;;;;;;3.25;1.00;;;;;10.77;77.32;98893.81;5055732;28;46039;-80
2023/04/01 03:02:57;;;;;;;;;3.75;2.00;;;;;10.78;77.76;98895.53;5047165;28;45397;-80
2023/04/01 03:05:23;;;;;;;;;4.25;4.25;;;;;10.78;77.82;98892.91;5050389;28;45611;-80
2023/04/01 03:07:49;;;;;;;;;2.00;2.00;;;;;10.78;77.71;98892.91;5053707;28;45441;-79
2023/04/01 03:10:14;;;;;;;;;2.50;0.25;;;;;10.78;77.69;98895.53;5054884;28;46122;-82
2023/04/01 03:12:41;;;;;;;;;3.25;3.25;;;;;10.77;78.07;98899.09;5055674;28;45514;-81
2023/04/01 03:15:07;;;;;;;;;5.50;3.00;;;;;10.77;78.33;98895.59;5055969;28;45333;-84
2023/04/01 03:17:32;;;;;;;;;3.25;2.50;;;;;10.78;78.42;98892.03;5055564;28;45426;-80
2023/04/01 03:19:57;;;;;;;;;3.75;3.75;;;;;10.77;78.59;98888.56;5070126;28;48203;-79
2023/04/01 03:22:23;;;;;;;;;3.50;3.00;;;;;10.75;78.55;98886.91;5069645;28;45305;-80
2023/04/01 03:24:48;;;;;;;;;6.25;4.00;;;;;10.74;78.67;98885.19;5053457;28;45445;-80
2023/04/01 03:27:14;;;;;;;;;4.75;4.25;;;;;10.71;78.97;98874.81;5066899;28;45658;-80
2023/04/01 03:29:40;;;;;;;;;2.25;2.25;;;;;10.66;79.37;98867.09;5050264;28;46372;-80
2023/04/01 03:32:05;;;;;;;;;4.00;4.00;;;;;10.66;78.92;98872.38;5055443;28;45393;-80
2023/04/01 03:34:31;;;;;;;;;3.75;3.50;;;;;10.63;79.36;98863.72;5055344;28;45368;-81
2023/04/01 03:36:57;;;;;;;;;4.00;4.00;;;;;10.60;79.55;98864.72;5054995;28;45554;-81
2023/04/01 03:39:22;;;;;;;;;4.75;3.00;;;;;10.59;79.39;98873.53;5069893;28;46540;-80
2023/04/01 03:41:48;;;;;;;;;5.75;4.00;;;;;10.57;79.18;98872.75;5054287;28;45435;-80
2023/04/01 03:44:13;;;;;;;;;5.00;5.00;;;;;10.58;79.38;98870.97;5051730;28;45498;-79
2023/04/01 03:46:39;;;;;;;;;5.00;3.75;;;;;10.56;79.40;98860.50;5033847;28;45433;-79
2023/04/01 03:49:11;;;;;;;;;2.75;2.75;;;;;10.56;79.31;98862.31;5053059;28;45575;-81
2023/04/01 03:51:38;;;;;;;;;5.00;3.00;;;;;10.56;79.36;98857.03;5054440;28;45432;-81
2023/04/01 03:54:04;;;;;;;;;3.25;2.75;;;;;10.56;79.03;98849.13;5070452;28;45396;-81
2023/04/01 03:56:30;;;;;;;;;5.00;3.50;;;;;10.58;78.78;98847.25;5055062;28;45414;-81
2023/04/01 03:58:55;;;;;;;;;2.75;1.00;;;;;10.59;78.89;98844.53;5054583;28;45800;-81
2023/04/01 04:01:22;;;;;;;;;4.00;3.25;;;;;10.61;78.94;98849.75;5069947;28;45424;-81
2023/04/01 04:03:49;;;;;;;;;3.00;2.75;;;;;10.63;78.99;98854.03;5054447;28;45369;-81
2023/04/01 04:06:15;;;;;;;;;4.50;3.00;;;;;10.63;78.36;98854.03;5069161;28;45473;-81
2023/04/01 04:08:41;;;;;;;;;2.75;2.00;;;;;10.63;78.28;98842.63;5053518;28;45461;-81
2023/04/01 04:11:07;;;;;;;;;4.00;4.00;;;;;10.60;78.24;98851.53;5054722;28;45432;-81
2023/04/01 04:13:32;;;;;;;;;2.00;2.00;;;;;10.63;79.07;98848.78;5054887;28;45463;-81
2023/04/01 04:15:58;;;;;;;;;4.50;3.75;;;;;10.61;78.55;98847.97;5054329;28;45460;-81
2023/04/01 04:18:24;;;;;;;;;2.50;2.50;;;;;10.60;78.18;98861.22;5053657;28;46156;-80
2023/04/01 04:20:50;;;;;;;;;2.25;1.50;;;;;10.56;77.94;98857.03;5052638;28;45440;-80
2023/04/01 04:23:17;;;;;;;;;4.75;2.50;;;;;10.51;78.35;98859.00;5053844;28;45330;-81
2023/04/01 04:26:03;;;;;;;;;2.25;1.75;;;;;10.45;78.97;98863.63;5053830;28;45340;-81
2023/04/01 04:28:28;;;;;;;;;2.25;2.00;;;;;10.39;78.75;98869.13;5054136;28;46504;-81
2023/04/01 04:30:54;;;;;;;;;2.50;2.50;;;;;10.34;78.04;98870.28;5069881;28;45397;-81
2023/04/01 04:33:22;;;;;;;;;2.25;2.00;;;;;10.25;78.98;98878.56;5054196;28;45330;-81
2023/04/01 04:35:48;;;;;;;;;0.50;0.00;;;;;10.16;79.43;98864.00;5054173;28;45716;-80
2023/04/01 04:38:13;;;;;;;;;3.00;3.00;;;;;10.12;79.65;98863.25;5053712;28;46476;-79
2023/04/01 04:40:41;;;;;;;;;3.00;2.00;;;;;10.13;79.89;98856.22;5053721;28;45435;-80
2023/04/01 04:43:07;;;;;;;;;3.25;3.25;;;;;10.14;79.94;98850.03;5052346;28;45524;-80
2023/04/01 04:45:32;;;;;;;;;6.00;2.00;;;;;10.15;80.12;98857.00;5053253;28;45385;-79
2023/04/01 04:47:58;;;;;;;;;2.00;2.00;;;;;10.15;79.86;98867.53;5053315;28;45392;-79
2023/04/01 04:50:24;;;;;;;;;5.75;5.00;;;;;10.20;80.08;98867.38;5054060;28;45377;-80
2023/04/01 04:52:50;;;;;;;;;2.50;2.50;;;;;10.25;79.96;98875.94;5053610;28;45471;-80
2023/04/01 04:55:15;;;;;;;;;4.00;2.75;;;;;10.26;80.30;98885.53;5052405;28;45520;-80
2023/04/01 04:57:41;;;;;;;;;4.75;4.00;;;;;10.23;80.45;98883.03;5053957;28;45657;-80
2023/04/01 05:00:07;;;;;;;;;3.00;3.00;;;;;10.16;80.35;98874.53;5052497;28;45750;-80
2023/04/01 05:02:33;;;;;;;;;3.00;3.00;;;;;10.12;80.61;98879.06;5053661;28;45524;-80
2023/04/01 05:04:58;;;;;;;;;3.25;3.25;;;;;10.10;80.49;98861.59;5041708;28;45383;-80
2023/04/01 05:07:24;;;;;;;;;4.00;2.00;;;;;10.15;80.36;98862.28;5045994;28;46347;-81
2023/04/01 05:09:49;;;;;;;;;3.75;2.75;;;;;10.19;80.84;98861.25;5032749;28;45448;-79
2023/04/01 05:12:15;;;;;;;;;3.50;3.50;;;;;10.26;80.76;98859.19;5033844;28;45338;-80
2023/04/01 05:14:40;;;;;;;;;4.00;4.00;;;;;10.31;80.55;98860.72;5043954;28;45573;-81
2023/04/01 05:17:10;;;;;;;;;3.00;3.00;;;;;10.36;81.10;98850.84;5053588;28;45444;-81
2023/04/01 05:19:36;;;;;;;;;5.75;5.75;;;;;10.41;81.04;98853.25;5053601;28;45369;-81
2023/04/01 05:22:01;;;;;;;;;8.50;4.00;;;;;10.48;81.00;98852.09;5053067;28;45510;-80
2023/04/01 05:24:27;;;;;;;;;4.25;4.25;;;;;10.52;80.53;98850.19;5068638;28;45543;-81
2023/04/01 05:26:52;;;;;;;;;4.00;4.00;;;;;10.55;80.89;98848.28;5039214;28;45800;-81
2023/04/01 05:29:18;;;;;;;;;6.00;4.25;;;;;10.58;80.97;98850.75;5055491;28;45376;-81
2023/04/01 05:31:43;;;;;;;;;3.50;3.50;;;;;10.61;80.67;98861.16;5057274;28;45900;-81
2023/04/01 05:34:08;;;;;;;;;7.00;4.75;;;;;10.62;80.20;98873.41;5062925;28;45385;-81
2023/04/01 05:36:35;;;;;;;;;3.00;3.00;;;;;10.60;79.81;98875.25;5055716;28;45948;-82
2023/04/01 05:39:00;;;;;;;;;3.25;3.25;;;;;10.56;79.74;98872.84;5055532;28;45326;-80
2023/04/01 05:41:26;;;;;;;;;3.25;3.00;;;;;10.48;79.70;98870.53;5056559;28;46051;-80
2023/04/01 05:43:51;;;;;;;;;4.75;3.00;;;;;10.40;80.32;98881.41;5056645;28;45235;-80
2023/04/01 05:46:16;;;;;;;;;4.00;3.00;;;;;10.31;80.45;98878.31;5058070;28;46283;-80
2023/04/01 05:48:42;;;;;;;;;4.00;3.00;;;;;10.26;80.42;98883.78;5056749;28;45374;-80
2023/04/01 05:51:15;;;;;;;;;4.00;3.00;;;;;10.23;81.22;98904.97;5071741;28;45399;-81
2023/04/01 05:53:41;;;;;;;;;3.00;3.00;;;;;10.15;82.02;98909.69;5072331;28;45367;-82
2023/04/01 05:56:09;;;;;;;;;2.00;2.00;;;;;10.10;82.76;98903.75;5056446;28;46512;-82
2023/04/01 05:58:35;;;;;;;;;3.00;2.00;;;;;10.06;82.74;98903.00;5068600;28;45378;-82
2023/04/01 06:01:11;;;;;;;;;6.00;4.00;;;;;10.03;82.39;98900.53;5043153;28;45309;-82
2023/04/01 06:03:37;;;;;;;;;3.00;3.00;;;;;10.04;82.28;98912.78;5055995;28;45499;-82
2023/04/01 06:06:03;;;;;;;;;5.00;3.25;;;;;10.04;82.58;98915.41;5055702;28;45452;-82
2023/04/01 06:08:30;;;;;;;;;4.00;3.50;;;;;10.03;82.39;98911.06;5061148;28;45379;-80
2023/04/01 06:11:26;;;;;;;;;4.00;4.00;;;;;10.05;82.61;98908.38;5056390;28;45425;-79
2023/04/01 06:14:21;;;;;;;;;5.00;5.00;;;;;10.10;82.32;98916.91;5055282;28;45618;-79
2023/04/01 06:17:08;;;;;;;;;7.00;3.00;;;;;10.15;82.07;98928.13;5055247;28;45701;-80
2023/04/01 06:19:39;;;;;;;;;4.00;3.25;;;;;10.15;82.37;98928.97;5054838;28;45385;-80
2023/04/01 06:22:17;;;;;;;;;4.00;3.75;;;;;10.20;81.65;98933.25;5067477;28;45700;-79
2023/04/01 06:25:10;;;;;;;;;6.25;4.50;;;;;10.27;81.54;98935.53;5048392;28;45473;-79
2023/04/01 06:27:57;;;;;;;;;3.00;3.00;;;;;10.33;81.48;98932.66;5067310;28;47009;-78
2023/04/01 06:30:53;;;;;;;;;4.50;4.00;;;;;10.42;82.04;98940.16;5043267;28;45519;-79
2023/04/01 06:33:52;;;;;;;;;4.25;3.00;;;;;10.53;81.53;98941.50;5053928;28;45424;-79
2023/04/01 06:36:26;;;;;;;;;2.00;2.00;;;;;10.63;82.07;98927.00;5070843;28;45428;-79
2023/04/01 06:39:42;;;;;;;;;5.00;4.00;;;;;10.74;82.12;98933.50;5062764;28;47296;-79
2023/04/01 06:42:28;;;;;;;;;7.50;7.50;;;;;10.88;82.09;98921.53;5022933;28;45556;-80
2023/04/01 06:45:31;;;;;;;;;8.00;7.00;;;;;11.02;81.99;98929.66;5031200;28;45481;-81
2023/04/01 06:48:08;;;;;;;;;7.00;7.00;;;;;11.11;81.08;98937.16;5037678;28;45545;-80
2023/04/01 06:50:59;;;;;;;;;7.00;5.00;;;;;11.23;81.10;98936.59;5052770;28;47036;-80
2023/04/01 06:53:43;;;;;;;;;5.75;5.00;;;;;11.33;79.94;98942.31;5066505;28;45604;-80
2023/04/01 06:56:13;;;;;;;;;13.50;12.00;;;;;11.37;79.14;98928.06;5051835;28;45398;-80
2023/04/01 06:58:59;;;;;;;;;6.00;5.00;;;;;11.46;78.42;98932.91;5070052;28;45626;-80
2023/04/01 07:01:59;;;;;;;;;6.50;4.00;;;;;11.61;78.07;98945.38;5048515;28;45515;-67
2023/04/01 07:04:30;;;;;;;;;6.50;4.00;;;;;11.73;77.88;98947.44;5047054;28;45515;-67
2023/04/01 07:06:59;;;;;;;;;4.25;4.25;;;;;11.84;76.46;98945.19;5053158;28;45616;-68
2023/04/01 07:09:32;;;;;;;;;7.50;4.50;;;;;11.88;75.97;98951.19;5051015;28;45645;-67
2023/04/01 07:12:05;;;;;;;;;3.75;3.00;;;;;11.85;75.44;98952.19;5037078;28;45440;-67
2023/04/01 07:14:36;;;;;;;;;3.40;3.40;;;;;11.87;75.42;98958.25;5043043;28;45380;-67
2023/04/01 07:17:26;;;;;;;;;4.25;3.75;;;;;11.95;75.23;98959.66;5035926;28;45446;-68
2023/04/01 07:20:10;;;;;;;;;5.75;4.00;;;;;12.03;75.42;98954.88;5033343;28;45527;-67
2023/04/01 07:22:44;;;;;;;;;6.75;4.00;;;;;12.14;75.36;98949.91;5033139;28;45455;-68
2023/04/01 07:25:36;;;;;;;;;6.50;5.00;;;;;12.25;74.99;98947.56;5033575;28;45551;-67
2023/04/01 07:28:06;;;;;;;;;7.00;5.00;;;;;12.34;74.35;98941.84;5033729;28;45454;-67
2023/04/01 07:31:05;;;;;;;;;4.00;4.00;;;;;12.45;74.20;98947.44;5033691;28;45555;-67
2023/04/01 07:33:44;;;;;;;;;5.00;5.00;;;;;12.54;73.91;98948.78;5033264;28;45438;-67
2023/04/01 07:36:47;;;;;;;;;5.00;5.00;;;;;12.65;73.86;98943.78;5031537;28;45458;-67
2023/04/01 07:39:25;;;;;;;;;6.25;4.50;;;;;12.75;73.52;98945.00;5047058;28;45570;-67
2023/04/01 07:42:18;;;;;;;;;8.00;6.00;;;;;12.85;72.92;98946.25;5051939;28;45418;-67
2023/04/01 07:45:14;;;;;;;;;4.75;4.75;;;;;12.94;72.90;98942.25;5052298;28;45668;-69
2023/04/01 07:48:15;;;;;;;;;8.00;5.00;;;;;13.02;72.40;98942.72;5046289;28;45569;-69
2023/04/01 07:51:03;;;;;;;;;4.00;3.25;;;;;13.08;72.41;98939.75;5048252;28;45345;-65
2023/04/01 07:53:56;;;;;;;;;4.00;3.25;;;;;13.16;72.64;98934.94;5048575;28;45839;-74
2023/04/01 07:56:59;;;;;;;;;4.50;4.50;;;;;13.19;71.69;98929.50;5029640;28;45504;-80
2023/04/01 07:59:46;;;;;;;;;4.50;4.50;;;;;13.17;71.56;98931.34;5050863;28;45470;-62
2023/04/01 08:02:30;;;;;;;;;7.50;5.00;;;;;13.15;71.52;98930.59;5053186;28;45526;-65
2023/04/01 08:05:27;;;;;;;;;8.50;7.50;;;;;13.17;71.68;98939.31;5053046;28;45725;-64
2023/04/01 08:08:11;;;;;;;;;4.00;2.00;;;;;13.21;71.63;98943.50;5052584;28;46614;-64
2023/04/01 08:10:39;;;;;;;;;5.25;4.50;;;;;13.16;71.09;98948.19;5052689;28;45355;-64
2023/04/01 08:13:42;;;;;;;;;6.25;5.00;;;;;13.12;71.78;98951.88;5053233;28;45499;-65
2023/04/01 08:16:17;;;;;;;;;9.00;8.00;;;;;13.11;71.63;98958.13;5042552;28;45665;-65
2023/04/01 08:18:52;;;;;;;;;7.75;7.75;;;;;13.10;72.12;98972.28;5047579;28;47298;-65
2023/04/01 08:21:25;;;;;;;;;10.50;7.25;;;;;13.12;72.03;98982.78;5032373;28;45465;-64
2023/04/01 08:23:57;;;;;;;;;5.25;4.50;;;;;13.07;70.22;98988.31;5039776;28;45466;-65
2023/04/01 08:26:44;;;;;;;;;7.00;5.50;;;;;12.87;70.75;98989.38;5052439;28;45350;-65
2023/04/01 08:29:18;;;;;;;;;9.25;9.25;;;;;12.78;71.84;98992.47;5052029;28;46552;-65
2023/04/01 08:31:48;;;;;;;;;4.40;3.00;;;;;12.72;71.89;98987.53;5052141;28;45483;-65
2023/04/01 08:34:37;;;;;;;;;7.00;6.25;;;;;12.67;71.58;98988.66;5068027;28;45526;-65
2023/04/01 08:37:12;;;;;;;;;5.25;5.25;;;;;12.59;71.83;98981.13;5074133;27;46140;-65
2023/04/01 08:39:45;;;;;;;;;4.00;4.00;;;;;12.62;72.01;98978.31;5055322;27;45519;-65
2023/04/01 08:42:31;;;;;;;;;4.00;4.00;;;;;12.62;71.85;98980.97;5052634;28;45447;-65
2023/04/01 08:45:18;;;;;;;;;1.75;1.00;;;;;12.68;70.52;98977.16;5067721;28;45346;-65
2023/04/01 08:48:08;;;;;;;;;2.00;2.00;;;;;12.82;70.17;98977.31;5052093;28;45471;-65
2023/04/01 08:50:45;;;;;;;;;2.50;0.50;;;;;12.97;70.70;98965.94;5051631;28;46380;-65
2023/04/01 08:53:48;;;;;;;;;3.00;1.00;;;;;13.10;69.32;98964.34;5051646;28;45465;-65
2023/04/01 08:56:38;;;;;;;;;3.00;2.50;;;;;13.19;69.35;98969.19;5052305;28;45444;-65
2023/04/01 08:59:06;;;;;;;;;1.00;1.00;;;;;13.33;69.26;98963.16;5051457;28;46307;-64
2023/04/01 09:01:34;;;;;;;;;2.00;2.00;;;;;13.49;69.28;98960.53;5044715;28;45514;-64
2023/04/01 09:04:11;;;;;;;;;9.25;7.25;;;;;13.60;70.11;98958.13;5049687;28;45386;-64
2023/04/01 09:06:58;;;;;;;;;5.00;5.00;;;;;13.71;70.83;98949.63;5054636;28;45483;-65
2023/04/01 09:09:45;;;;;;;;;5.00;5.00;;;;;13.83;70.22;98954.22;5043142;28;45458;-65
2023/04/01 09:12:28;;;;;;;;;3.75;3.75;;;;;13.93;69.84;98950.97;5054838;28;45658;-65
2023/04/01 09:15:20;;;;;;;;;5.00;5.00;;;;;14.06;69.81;98958.25;5054418;28;45387;-65
2023/04/01 09:17:45;;;;;;;;;3.75;3.75;;;;;14.15;69.05;98955.91;5045642;28;45511;-65
2023/04/01 09:20:17;;;;;;;;;3.50;3.50;;;;;14.18;68.58;98953.09;5054559;28;45447;-65
2023/04/01 09:22:58;;;;;;;;;3.00;3.00;;;;;14.22;67.38;98954.63;5054367;28;45598;-65
2023/04/01 09:25:53;;;;;;;;;3.00;1.20;;;;;14.29;66.69;98947.16;5054423;28;45653;-65
2023/04/01 09:28:38;;;;;;;;;1.00;1.00;;;;;14.42;66.60;98942.03;5054470;28;45337;-65
2023/04/01 09:31:21;;;;;;;;;3.00;2.00;;;;;14.61;65.63;98932.03;5054678;28;45522;-68
2023/04/01 09:34:08;;;;;;;;;1.60;1.60;;;;;14.75;65.24;98929.41;5054705;28;46216;-65
2023/04/01 09:37:17;;;;;;;;;3.20;2.00;;;;;14.94;64.21;98922.03;5056764;28;45549;-66
2023/04/01 09:40:07;;;;;;;;;2.00;1.25;;;;;15.07;63.67;98918.66;5037020;28;45405;-66
2023/04/01 09:42:51;;;;;;;;;0.00;0.00;;;;;15.14;63.43;98920.81;5062210;27;45505;-66
2023/04/01 09:45:48;;;;;;;;;1.00;1.00;;;;;15.20;61.86;98919.59;5047831;28;46234;-66
2023/04/01 09:48:28;;;;;;;;;1.20;0.40;;;;;15.28;61.00;98917.31;5041545;28;45448;-66
2023/04/01 09:51:26;;;;;;;;;0.60;0.60;;;;;15.38;60.52;98910.50;5069646;28;45436;-66
2023/04/01 09:54:13;;;;;;;;;1.00;1.00;;;;;15.45;59.47;98914.44;5045957;28;45584;-66
2023/04/01 09:56:52;;;;;;;;;1.20;1.00;;;;;15.54;59.59;98913.88;5053943;28;46540;-66
2023/04/01 09:59:49;;;;;;;;;1.40;1.00;;;;;15.64;60.04;98914.16;5054371;28;45522;-67
2023/04/01 10:02:52;;;;;;;;;1.00;1.00;;;;;15.64;59.29;98917.69;5053891;28;45516;-66
2023/04/01 10:06:00;;;;;;;;;0.60;0.60;;;;;15.64;59.64;98912.34;5053602;28;45438;-66
2023/04/01 10:08:58;;;;;;;;;0.40;0.40;;;;;15.68;57.77;98907.72;5053668;28;45576;-66
2023/04/01 10:11:39;;;;;;;;;1.40;1.40;;;;;15.77;58.65;98898.28;5069500;28;45414;-66
2023/04/01 10:14:10;;;;;;;;;0.00;0.00;;;;;15.83;56.76;98900.53;5054658;28;45479;-66
2023/04/01 10:17:13;;;;;;;;;0.00;0.00;;;;;15.71;56.57;98899.53;5038649;28;45412;-66
2023/04/01 10:19:55;;;;;;;;;0.00;0.00;;;;;15.68;57.35;98897.94;5033091;28;46811;-66
2023/04/01 10:22:40;;;;;;;;;1.80;0.20;;;;;15.70;57.28;98890.72;5041670;28;45421;-66
2023/04/01 10:25:15;;;;;;;;;1.00;1.00;;;;;15.73;57.78;98888.81;5054500;28;45520;-66
2023/04/01 10:27:54;;;;;;;;;0.40;0.40;;;;;15.78;57.93;98882.22;5070141;28;45669;-66
2023/04/01 10:30:53;;;;;;;;;1.00;1.00;;;;;15.80;57.68;98879.47;5054239;28;46503;-66
2023/04/01 10:33:30;;;;;;;;;2.20;1.00;;;;;15.77;58.41;98875.19;5053893;28;45520;-67
2023/04/01 10:36:14;;;;;;;;;0.80;0.80;;;;;15.74;56.17;98880.75;5053654;28;45387;-66
2023/04/01 10:39:01;;;;;;;;;1.75;1.50;;;;;15.65;57.75;98876.00;5064995;28;45504;-66
2023/04/01 10:41:53;;;;;;;;;1.20;1.20;;;;;15.64;57.55;98880.47;5052402;28;46414;-65
2023/04/01 10:44:21;;;;;;;;;1.00;1.00;;;;;15.60;56.79;98878.09;5049025;28;45455;-63
2023/04/01 10:46:46;;;;;;;;;1.00;1.00;;;;;15.51;56.89;98879.53;5054164;28;45545;-65
2023/04/01 10:49:27;;;;;;;;;2.00;1.00;;;;;15.47;57.72;98875.34;5052322;28;45840;-66
2023/04/01 10:52:19;;;;;;;;;1.00;0.60;;;;;15.53;58.31;98860.84;5049260;28;45756;-65
2023/04/01 10:54:57;;;;;;;;;2.40;2.40;;;;;15.62;60.03;98862.91;5052830;28;45465;-69
2023/04/01 10:57:42;;;;;;;;;2.60;2.60;;;;;15.68;59.38;98855.41;5050588;28;45451;-64
2023/04/01 11:00:47;;;;;;;;;1.00;1.00;;;;;15.77;58.00;98853.09;5049087;28;45441;-64
2023/04/01 11:03:42;;;;;;;;;0.60;0.60;;;;;15.82;56.77;98840.34;5045398;28;45546;-64
2023/04/01 11:06:31;;;;;;;;;0.00;0.00;;;;;15.75;56.64;98837.28;5042275;28;45635;-64
2023/04/01 11:09:31;;;;;;;;;2.00;0.80;;;;;15.77;56.84;98835.34;5045686;28;45559;-64
2023/04/01 11:12:29;;;;;;;;;1.00;1.00;;;;;15.70;56.68;98836.72;5053590;28;45606;-64
2023/04/01 11:15:10;;;;;;;;;0.00;0.00;;;;;15.66;56.42;98840.50;5037374;28;47002;-64
2023/04/01 11:18:00;;;;;;;;;1.60;0.60;;;;;15.68;56.29;98842.13;5042225;28;45305;-64
2023/04/01 11:20:42;;;;;;;;;0.00;0.00;;;;;15.67;55.90;98842.22;5053187;28;45490;-64
2023/04/01 11:23:14;;;;;;;;;0.00;0.00;;;;;15.58;57.26;98840.16;5052920;28;45490;-64
2023/04/01 11:26:09;;;;;;;;;0.00;0.00;;;;;15.37;56.49;98847.69;5053908;28;45504;-64
2023/04/01 11:29:08;;;;;;;;;2.60;1.20;;;;;15.27;57.57;98847.41;5053170;28;45608;-64
2023/04/01 11:31:46;;;;;;;;;2.00;0.20;;;;;15.12;56.68;98844.84;5053286;28;45446;-64
2023/04/01 11:34:20;;;;;;;;;0.40;0.40;;;;;14.98;57.07;98838.63;5053299;28;45424;-64
2023/04/01 11:36:48;;;;;;;;;0.20;0.20;;;;;14.76;56.83;98851.50;5057402;28;46796;-64
2023/04/01 11:39:23;;;;;;;;;1.80;0.00;;;;;14.60;58.39;98843.63;5059392;27;45394;-64
2023/04/01 11:42:04;;;;;;;;;0.00;0.00;;;;;14.56;59.28;98842.13;5068580;28;45442;-64
2023/04/01 11:44:35;;;;;;;;;0.40;0.40;;;;;14.60;59.15;98840.97;5053434;28;45427;-65
2023/04/01 11:47:15;;;;;;;;;1.80;0.00;;;;;14.61;59.77;98834.72;5053268;28;46343;-64
2023/04/01 11:50:08;;;;;;;;;1.40;0.60;;;;;14.63;58.99;98830.19;5053039;28;45443;-64
2023/04/01 11:53:11;;;;;;;;;0.80;0.00;;;;;14.65;59.03;98824.78;5051857;28;45480;-64
2023/04/01 11:55:58;;;;;;;;;0.20;0.00;;;;;14.73;58.50;98826.97;5052741;28;45411;-64
2023/04/01 11:58:36;;;;;;;;;0.00;0.00;;;;;14.85;57.90;98821.75;5052636;28;45640;-65
2023/04/01 12:01:14;;;;;;;;;0.00;0.00;;;;;14.85;56.62;98823.56;5052512;28;45510;-65
2023/04/01 12:03:51;;;;;;;;;0.00;0.00;;;;;14.81;56.63;98811.41;5052631;28;45416;-65
2023/04/01 12:06:26;;;;;;;;;0.00;0.00;;;;;14.82;56.34;98794.56;5052300;28;45522;-65
2023/04/01 12:09:01;;;;;;;;;1.00;0.00;;;;;14.90;56.55;98785.19;5052268;28;46677;-65
2023/04/01 12:11:54;;;;;;;;;0.00;0.00;;;;;15.04;55.24;98784.28;5053266;28;45427;-65
2023/04/01 12:14:50;;;;;;;;;0.00;0.00;;;;;15.22;55.58;98782.25;5053245;28;45388;-65
2023/04/01 12:17:33;;;;;;;;;1.00;0.00;;;;;15.38;54.25;98764.38;5046487;28;45416;-63